La Ceiba, Honduras

8:55 PM CST on July 29, 2016 (GMT -0600)
IUTILA1 | | Change Station

Elev 25 ft 16.10 °N, 86.90 °W | Updated 4 seconds ago

Scattered Clouds
Scattered Clouds
84.4 °F
Feels Like 96 °F
N
14.0
Wind Variable Wind from ENE
Gusts 26.0 mph

Today
High -- | Low -- °F
--% Chance of Precip.
Yesterday
High -- | Low -- °F
Precip. -- in
Pressure 29.95 in
Visibility 6.2 miles
Clouds Few 1200 ft
Few 2200 ft
Scattered Clouds 20000 ft
Heat Index 96 °F
Dew Point 78 °F
Humidity 82%
Rainfall 0.00 in
Snow Depth Not available.
5:28 AM 6:19 PM
Waning Crescent, 17% visible
METAR MHRO 300200Z 07020G32KT 9999 FEW012 FEW022CB SCT200 29/26 Q1014 A2995 NOSIG
Pressure 29.95 in
Visibility 6.2 miles
Clouds Few 1200 ft
Few 2200 ft
Scattered Clouds 20000 ft
Heat Index 96 °F
Dew Point 78 °F
Humidity 82%
Rainfall 0.00 in
Snow Depth Not available.
5:28 AM 6:19 PM
Waning Crescent, 17% visible
METAR MHRO 300200Z 07020G32KT 9999 FEW012 FEW022CB SCT200 29/26 Q1014 A2995 NOSIG

10-Day Weather Forecast

No radar image for this location.
×

Almanac

Astronomy

Jul. 29, 2016 Rise Set
Actual Time
Civil Twilight
Nautical Twilight
Astronomical Twilight
Moon
Length of Visible Light
Length of Day
Tomorrow will be .
, % of the Moon is Illuminated

Today's Extremes

Country Highs Country Lows

Community

WunderPhotos

Upload Photos

1,928,491 photos uploaded!

WunderBlog® & News

Nearby

Air Quality

  Air Quality AQ Index Pollutant
Not available.

Snow Depth

Station Depth Elevation

Earthquake Activity

City Distance Mag. Time & Date
Minimum magnitude displayed is 2.5.

Coastal Water Temperatures

Place Temperature

Stations

Nearby Weather Stations

Station Location Temp. Windchill Dew Point Humidity Wind Precip. Elev Updated Type